sensor_id;sensor_type;location;lat;lon;timestamp;pressure;altitude;pressure_sealevel;temperature;humidity
53262;BME280;39658;51.090;-1.786;2024-03-02T00:01:31;98744.53;;;1.50;100.00
53262;BME280;39658;51.090;-1.786;2024-03-02T00:03:58;98757.16;;;1.56;100.00
53262;BME280;39658;51.090;-1.786;2024-03-02T00:06:25;98761.06;;;1.64;100.00
53262;BME280;39658;51.090;-1.786;2024-03-02T00:08:57;98774.88;;;1.78;100.00
53262;BME280;39658;51.090;-1.786;2024-03-02T00:11:24;98788.34;;;1.85;100.00
53262;BME280;39658;51.090;-1.786;2024-03-02T00:13:53;98792.13;;;1.94;100.00
53262;BME280;39658;51.090;-1.786;2024-03-02T00:16:20;98801.94;;;2.03;100.00
53262;BME280;39658;51.090;-1.786;2024-03-02T00:18:48;98820.91;;;2.05;100.00
53262;BME280;39658;51.090;-1.786;2024-03-02T00:21:15;98815.63;;;2.07;100.00
53262;BME280;39658;51.090;-1.786;2024-03-02T00:23:45;98825.91;;;2.08;100.00
53262;BME280;39658;51.090;-1.786;2024-03-02T00:26:12;98842.97;;;2.12;100.00
53262;BME280;39658;51.090;-1.786;2024-03-02T00:28:40;98846.44;;;2.13;100.00
53262;BME280;39658;51.090;-1.786;2024-03-02T00:31:10;98867.78;;;2.18;100.00
53262;BME280;39658;51.090;-1.786;2024-03-02T00:33:40;98872.69;;;2.23;100.00
53262;BME280;39658;51.090;-1.786;2024-03-02T00:36:10;98887.66;;;2.33;100.00
53262;BME280;39658;51.090;-1.786;2024-03-02T00:38:44;98870.63;;;2.42;100.00
53262;BME280;39658;51.090;-1.786;2024-03-02T00:41:16;98901.94;;;2.41;100.00
53262;BME280;39658;51.090;-1.786;2024-03-02T00:43:46;98900.47;;;2.37;100.00
53262;BME280;39658;51.090;-1.786;2024-03-02T00:46:16;98911.16;;;2.32;100.00
53262;BME280;39658;51.090;-1.786;2024-03-02T00:48:50;98910.19;;;2.33;100.00
53262;BME280;39658;51.090;-1.786;2024-03-02T00:51:19;98917.81;;;2.36;100.00
53262;BME280;39658;51.090;-1.786;2024-03-02T00:53:46;98906.50;;;2.37;100.00
53262;BME280;39658;51.090;-1.786;2024-03-02T00:56:13;98914.28;;;2.37;100.00
53262;BME280;39658;51.090;-1.786;2024-03-02T00:58:40;98906.31;;;2.40;100.00
53262;BME280;39658;51.090;-1.786;2024-03-02T01:01:07;98939.19;;;2.41;100.00
53262;BME280;39658;51.090;-1.786;2024-03-02T01:03:35;98943.53;;;2.41;100.00
53262;BME280;39658;51.090;-1.786;2024-03-02T01:06:03;98939.19;;;2.41;100.00
53262;BME280;39658;51.090;-1.786;2024-03-02T01:08:31;98957.94;;;2.46;100.00
53262;BME280;39658;51.090;-1.786;2024-03-02T01:10:58;98949.97;;;2.49;100.00
53262;BME280;39658;51.090;-1.786;2024-03-02T01:13:25;98974.31;;;2.63;100.00
53262;BME280;39658;51.090;-1.786;2024-03-02T01:15:50;98976.81;;;2.64;100.00
53262;BME280;39658;51.090;-1.786;2024-03-02T01:18:18;98980.06;;;2.68;100.00
53262;BME280;39658;51.090;-1.786;2024-03-02T01:20:45;98975.50;;;2.72;100.00
53262;BME280;39658;51.090;-1.786;2024-03-02T01:23:12;98968.72;;;2.69;100.00
53262;BME280;39658;51.090;-1.786;2024-03-02T01:25:40;98969.84;;;2.65;100.00
53262;BME280;39658;51.090;-1.786;2024-03-02T01:28:07;98983.59;;;2.67;100.00
53262;BME280;39658;51.090;-1.786;2024-03-02T01:30:34;98969.09;;;2.63;100.00
53262;BME280;39658;51.090;-1.786;2024-03-02T01:33:00;98986.09;;;2.68;100.00
53262;BME280;39658;51.090;-1.786;2024-03-02T01:35:27;98992.97;;;2.69;100.00
53262;BME280;39658;51.090;-1.786;2024-03-02T01:37:54;98993.63;;;2.73;100.00
53262;BME280;39658;51.090;-1.786;2024-03-02T01:40:21;98997.81;;;2.76;100.00
53262;BME280;39658;51.090;-1.786;2024-03-02T01:42:53;98992.63;;;2.61;100.00
53262;BME280;39658;51.090;-1.786;2024-03-02T01:45:20;98986.28;;;2.37;100.00
53262;BME280;39658;51.090;-1.786;2024-03-02T01:47:47;98976.53;;;2.11;100.00
53262;BME280;39658;51.090;-1.786;2024-03-02T01:50:14;98970.00;;;2.04;100.00
53262;BME280;39658;51.090;-1.786;2024-03-02T01:52:41;98936.84;;;1.93;100.00
53262;BME280;39658;51.090;-1.786;2024-03-02T01:55:09;98926.34;;;1.95;100.00
53262;BME280;39658;51.090;-1.786;2024-03-02T01:57:36;98892.28;;;2.00;100.00
53262;BME280;39658;51.090;-1.786;2024-03-02T02:00:06;98873.53;;;1.94;100.00
53262;BME280;39658;51.090;-1.786;2024-03-02T02:02:35;98825.53;;;1.86;100.00
53262;BME280;39658;51.090;-1.786;2024-03-02T02:05:02;98797.34;;;1.79;100.00
53262;BME280;39658;51.090;-1.786;2024-03-02T02:07:29;98782.94;;;1.74;100.00
53262;BME280;39658;51.090;-1.786;2024-03-02T02:09:56;98779.50;;;1.73;100.00
53262;BME280;39658;51.090;-1.786;2024-03-02T02:12:23;98772.16;;;1.80;100.00
53262;BME280;39658;51.090;-1.786;2024-03-02T02:14:50;98767.75;;;1.82;100.00
53262;BME280;39658;51.090;-1.786;2024-03-02T02:17:19;98757.53;;;1.79;100.00
53262;BME280;39658;51.090;-1.786;2024-03-02T02:19:45;98748.78;;;1.80;100.00
53262;BME280;39658;51.090;-1.786;2024-03-02T02:22:14;98739.88;;;1.84;100.00
53262;BME280;39658;51.090;-1.786;2024-03-02T02:24:41;98725.97;;;1.85;100.00
53262;BME280;39658;51.090;-1.786;2024-03-02T02:27:08;98711.22;;;1.86;100.00
53262;BME280;39658;51.090;-1.786;2024-03-02T02:29:35;98699.41;;;1.80;100.00
53262;BME280;39658;51.090;-1.786;2024-03-02T02:32:02;98701.72;;;1.85;100.00
53262;BME280;39658;51.090;-1.786;2024-03-02T02:34:29;98711.22;;;1.86;100.00
53262;BME280;39658;51.090;-1.786;2024-03-02T02:36:56;98710.28;;;1.87;100.00
53262;BME280;39658;51.090;-1.786;2024-03-02T02:39:24;98705.63;;;1.92;100.00
53262;BME280;39658;51.090;-1.786;2024-03-02T02:41:51;98697.81;;;1.92;100.00
53262;BME280;39658;51.090;-1.786;2024-03-02T02:44:18;98705.81;;;1.89;100.00
53262;BME280;39658;51.090;-1.786;2024-03-02T02:46:45;98696.06;;;1.92;100.00
53262;BME280;39658;51.090;-1.786;2024-03-02T02:49:11;98716.56;;;1.97;100.00
53262;BME280;39658;51.090;-1.786;2024-03-02T02:51:38;98709.22;;;2.04;100.00
53262;BME280;39658;51.090;-1.786;2024-03-02T02:54:05;98712.56;;;2.06;100.00
53262;BME280;39658;51.090;-1.786;2024-03-02T02:56:33;98714.13;;;2.08;100.00
53262;BME280;39658;51.090;-1.786;2024-03-02T02:59:00;98713.28;;;2.08;100.00
53262;BME280;39658;51.090;-1.786;2024-03-02T03:01:27;98723.41;;;2.12;100.00
53262;BME280;39658;51.090;-1.786;2024-03-02T03:03:53;98711.97;;;2.15;100.00
53262;BME280;39658;51.090;-1.786;2024-03-02T03:06:20;98712.84;;;2.28;100.00
53262;BME280;39658;51.090;-1.786;2024-03-02T03:08:47;98677.19;;;2.30;100.00
53262;BME280;39658;51.090;-1.786;2024-03-02T03:11:14;98715.41;;;2.43;100.00
53262;BME280;39658;51.090;-1.786;2024-03-02T03:13:43;98719.56;;;2.45;100.00
53262;BME280;39658;51.090;-1.786;2024-03-02T03:16:09;98714.63;;;2.55;100.00
53262;BME280;39658;51.090;-1.786;2024-03-02T03:18:36;98720.16;;;2.63;100.00
53262;BME280;39658;51.090;-1.786;2024-03-02T03:21:03;98696.03;;;2.74;100.00
53262;BME280;39658;51.090;-1.786;2024-03-02T03:23:30;98706.13;;;2.92;100.00
53262;BME280;39658;51.090;-1.786;2024-03-02T03:25:57;98701.13;;;3.01;100.00
53262;BME280;39658;51.090;-1.786;2024-03-02T03:28:24;98690.53;;;3.04;100.00
53262;BME280;39658;51.090;-1.786;2024-03-02T03:30:52;98707.72;;;3.07;100.00
53262;BME280;39658;51.090;-1.786;2024-03-02T03:33:19;98734.78;;;3.04;100.00
53262;BME280;39658;51.090;-1.786;2024-03-02T03:35:45;98772.38;;;3.00;100.00
53262;BME280;39658;51.090;-1.786;2024-03-02T03:38:13;98746.84;;;2.80;100.00
53262;BME280;39658;51.090;-1.786;2024-03-02T03:40:40;98746.25;;;2.34;100.00
53262;BME280;39658;51.090;-1.786;2024-03-02T03:43:07;98753.13;;;2.08;100.00
53262;BME280;39658;51.090;-1.786;2024-03-02T03:45:34;98749.34;;;1.85;100.00
53262;BME280;39658;51.090;-1.786;2024-03-02T03:48:02;98731.53;;;1.65;100.00
53262;BME280;39658;51.090;-1.786;2024-03-02T03:50:29;98727.59;;;1.45;100.00
53262;BME280;39658;51.090;-1.786;2024-03-02T03:52:56;98705.41;;;1.39;100.00
53262;BME280;39658;51.090;-1.786;2024-03-02T03:55:23;98697.97;;;1.47;100.00
53262;BME280;39658;51.090;-1.786;2024-03-02T03:57:49;98687.50;;;1.49;100.00
53262;BME280;39658;51.090;-1.786;2024-03-02T04:00:16;98681.09;;;1.54;100.00
53262;BME280;39658;51.090;-1.786;2024-03-02T04:02:43;98654.69;;;1.48;100.00
53262;BME280;39658;51.090;-1.786;2024-03-02T04:05:11;98634.63;;;1.50;100.00
53262;BME280;39658;51.090;-1.786;2024-03-02T04:07:38;98625.44;;;1.44;100.00
53262;BME280;39658;51.090;-1.786;2024-03-02T04:10:07;98617.75;;;1.42;100.00
53262;BME280;39658;51.090;-1.786;2024-03-02T04:12:35;98597.38;;;1.36;100.00
53262;BME280;39658;51.090;-1.786;2024-03-02T04:15:05;98592.28;;;1.35;100.00
53262;BME280;39658;51.090;-1.786;2024-03-02T04:17:32;98590.34;;;1.38;100.00
53262;BME280;39658;51.090;-1.786;2024-03-02T04:20:01;98569.19;;;1.30;100.00
53262;BME280;39658;51.090;-1.786;2024-03-02T04:22:33;98574.47;;;1.29;100.00
53262;BME280;39658;51.090;-1.786;2024-03-02T04:25:00;98573.56;;;1.30;100.00
53262;BME280;39658;51.090;-1.786;2024-03-02T04:27:26;98574.41;;;1.16;100.00
53262;BME280;39658;51.090;-1.786;2024-03-02T04:29:53;98566.09;;;1.11;100.00
53262;BME280;39658;51.090;-1.786;2024-03-02T04:32:20;98580.06;;;1.08;100.00
53262;BME280;39658;51.090;-1.786;2024-03-02T04:34:47;98591.72;;;1.30;100.00
53262;BME280;39658;51.090;-1.786;2024-03-02T04:37:14;98609.78;;;1.46;100.00
53262;BME280;39658;51.090;-1.786;2024-03-02T04:39:42;98615.78;;;1.60;100.00
53262;BME280;39658;51.090;-1.786;2024-03-02T04:42:09;98620.03;;;1.76;100.00
53262;BME280;39658;51.090;-1.786;2024-03-02T04:44:36;98626.09;;;1.89;100.00
53262;BME280;39658;51.090;-1.786;2024-03-02T04:47:03;98650.16;;;2.06;100.00
53262;BME280;39658;51.090;-1.786;2024-03-02T04:49:30;98660.19;;;2.12;100.00
53262;BME280;39658;51.090;-1.786;2024-03-02T04:51:57;98678.13;;;2.29;100.00
53262;BME280;39658;51.090;-1.786;2024-03-02T04:54:24;98687.09;;;2.38;100.00
53262;BME280;39658;51.090;-1.786;2024-03-02T04:56:52;98705.84;;;2.43;100.00
53262;BME280;39658;51.090;-1.786;2024-03-02T04:59:19;98709.81;;;2.49;100.00
53262;BME280;39658;51.090;-1.786;2024-03-02T05:01:46;98722.31;;;2.57;100.00
53262;BME280;39658;51.090;-1.786;2024-03-02T05:04:13;98729.38;;;2.55;100.00
53262;BME280;39658;51.090;-1.786;2024-03-02T05:06:40;98730.94;;;2.57;100.00
53262;BME280;39658;51.090;-1.786;2024-03-02T05:09:07;98747.59;;;2.55;100.00
53262;BME280;39658;51.090;-1.786;2024-03-02T05:11:34;98762.28;;;2.56;100.00
53262;BME280;39658;51.090;-1.786;2024-03-02T05:14:37;98772.56;;;2.57;100.00
53262;BME280;39658;51.090;-1.786;2024-03-02T05:17:04;98791.56;;;2.45;100.00
53262;BME280;39658;51.090;-1.786;2024-03-02T05:19:30;98807.13;;;2.32;100.00
53262;BME280;39658;51.090;-1.786;2024-03-02T05:21:57;98801.66;;;2.22;100.00
53262;BME280;39658;51.090;-1.786;2024-03-02T05:24:24;98808.91;;;2.17;100.00
53262;BME280;39658;51.090;-1.786;2024-03-02T05:26:52;98815.22;;;1.98;100.00
53262;BME280;39658;51.090;-1.786;2024-03-02T05:29:19;98814.13;;;1.88;100.00
53262;BME280;39658;51.090;-1.786;2024-03-02T05:31:47;98811.63;;;1.87;100.00
53262;BME280;39658;51.090;-1.786;2024-03-02T05:34:14;98802.63;;;1.78;100.00
53262;BME280;39658;51.090;-1.786;2024-03-02T05:36:41;98794.84;;;1.49;100.00
53262;BME280;39658;51.090;-1.786;2024-03-02T05:39:07;98787.28;;;1.30;100.00
53262;BME280;39658;51.090;-1.786;2024-03-02T05:41:35;98779.28;;;1.19;100.00
53262;BME280;39658;51.090;-1.786;2024-03-02T05:44:03;98786.34;;;1.17;100.00
53262;BME280;39658;51.090;-1.786;2024-03-02T05:46:30;98770.06;;;0.99;100.00
53262;BME280;39658;51.090;-1.786;2024-03-02T05:48:59;98759.44;;;0.73;100.00
53262;BME280;39658;51.090;-1.786;2024-03-02T05:51:25;98759.72;;;0.52;100.00
53262;BME280;39658;51.090;-1.786;2024-03-02T05:53:52;98748.47;;;0.38;100.00
53262;BME280;39658;51.090;-1.786;2024-03-02T05:56:19;98741.75;;;0.33;100.00
53262;BME280;39658;51.090;-1.786;2024-03-02T05:58:46;98741.03;;;0.31;100.00
53262;BME280;39658;51.090;-1.786;2024-03-02T06:01:23;98744.28;;;0.19;100.00
53262;BME280;39658;51.090;-1.786;2024-03-02T06:03:54;98750.06;;;0.08;100.00
53262;BME280;39658;51.090;-1.786;2024-03-02T06:06:22;98767.78;;;0.00;100.00
53262;BME280;39658;51.090;-1.786;2024-03-02T06:08:49;98762.00;;;-0.05;100.00
53262;BME280;39658;51.090;-1.786;2024-03-02T06:11:16;98758.81;;;-0.10;100.00
53262;BME280;39658;51.090;-1.786;2024-03-02T06:13:43;98762.06;;;-0.23;100.00
53262;BME280;39658;51.090;-1.786;2024-03-02T06:16:10;98756.63;;;-0.34;100.00
53262;BME280;39658;51.090;-1.786;2024-03-02T06:18:37;98768.06;;;-0.38;100.00
53262;BME280;39658;51.090;-1.786;2024-03-02T06:21:04;98767.47;;;-0.43;100.00
53262;BME280;39658;51.090;-1.786;2024-03-02T06:23:32;98776.88;;;-0.42;100.00
53262;BME280;39658;51.090;-1.786;2024-03-02T06:26:00;98775.91;;;-0.40;100.00
53262;BME280;39658;51.090;-1.786;2024-03-02T06:28:27;98774.47;;;-0.45;100.00
53262;BME280;39658;51.090;-1.786;2024-03-02T06:30:54;98768.38;;;-0.44;100.00
53262;BME280;39658;51.090;-1.786;2024-03-02T06:33:21;98789.84;;;-0.42;100.00
53262;BME280;39658;51.090;-1.786;2024-03-02T06:35:48;98799.75;;;-0.50;100.00
53262;BME280;39658;51.090;-1.786;2024-03-02T06:38:15;98801.75;;;-0.56;100.00
53262;BME280;39658;51.090;-1.786;2024-03-02T06:40:43;98811.47;;;-0.61;100.00
53262;BME280;39658;51.090;-1.786;2024-03-02T06:43:10;98810.72;;;-0.63;100.00
53262;BME280;39658;51.090;-1.786;2024-03-02T06:45:37;98827.78;;;-0.59;100.00
53262;BME280;39658;51.090;-1.786;2024-03-02T06:48:04;98834.47;;;-0.55;100.00
53262;BME280;39658;51.090;-1.786;2024-03-02T06:50:31;98835.25;;;-0.52;100.00
53262;BME280;39658;51.090;-1.786;2024-03-02T06:52:58;98837.84;;;-0.52;100.00
53262;BME280;39658;51.090;-1.786;2024-03-02T06:55:25;98838.66;;;-0.52;100.00
53262;BME280;39658;51.090;-1.786;2024-03-02T06:57:53;98852.06;;;-0.44;100.00
53262;BME280;39658;51.090;-1.786;2024-03-02T07:00:20;98866.38;;;-0.37;100.00
53262;BME280;39658;51.090;-1.786;2024-03-02T07:02:47;98878.34;;;-0.34;100.00
53262;BME280;39658;51.090;-1.786;2024-03-02T07:05:14;98885.72;;;-0.26;100.00
53262;BME280;39658;51.090;-1.786;2024-03-02T07:07:41;98905.25;;;-0.21;100.00
53262;BME280;39658;51.090;-1.786;2024-03-02T07:10:08;98903.59;;;-0.22;100.00
53262;BME280;39658;51.090;-1.786;2024-03-02T07:12:35;98903.91;;;-0.28;100.00
53262;BME280;39658;51.090;-1.786;2024-03-02T07:15:04;98926.53;;;-0.31;100.00
53262;BME280;39658;51.090;-1.786;2024-03-02T07:17:50;98931.69;;;-0.31;100.00
53262;BME280;39658;51.090;-1.786;2024-03-02T07:20:17;98932.34;;;-0.26;100.00
53262;BME280;39658;51.090;-1.786;2024-03-02T07:22:44;98942.69;;;-0.26;100.00
53262;BME280;39658;51.090;-1.786;2024-03-02T07:25:11;98941.09;;;-0.29;100.00
53262;BME280;39658;51.090;-1.786;2024-03-02T07:27:38;98945.34;;;-0.28;100.00
53262;BME280;39658;51.090;-1.786;2024-03-02T07:30:07;98948.78;;;-0.27;100.00
53262;BME280;39658;51.090;-1.786;2024-03-02T07:32:34;98953.72;;;-0.23;100.00
53262;BME280;39658;51.090;-1.786;2024-03-02T07:35:01;98960.28;;;-0.15;100.00
53262;BME280;39658;51.090;-1.786;2024-03-02T07:37:29;98964.06;;;-0.05;100.00
53262;BME280;39658;51.090;-1.786;2024-03-02T07:39:55;98967.97;;;0.04;100.00
53262;BME280;39658;51.090;-1.786;2024-03-02T07:42:22;98964.81;;;0.14;100.00
53262;BME280;39658;51.090;-1.786;2024-03-02T07:44:49;98983.31;;;0.24;100.00
53262;BME280;39658;51.090;-1.786;2024-03-02T07:47:17;98986.91;;;0.22;100.00
53262;BME280;39658;51.090;-1.786;2024-03-02T07:49:44;98991.25;;;0.21;100.00
53262;BME280;39658;51.090;-1.786;2024-03-02T07:52:12;98994.19;;;0.31;100.00
53262;BME280;39658;51.090;-1.786;2024-03-02T07:54:38;98994.50;;;0.42;100.00
53262;BME280;39658;51.090;-1.786;2024-03-02T07:57:05;99000.28;;;0.47;100.00
53262;BME280;39658;51.090;-1.786;2024-03-02T07:59:32;99002.28;;;0.42;100.00
53262;BME280;39658;51.090;-1.786;2024-03-02T08:01:59;98989.91;;;0.47;100.00
53262;BME280;39658;51.090;-1.786;2024-03-02T08:04:27;98991.69;;;0.47;100.00
53262;BME280;39658;51.090;-1.786;2024-03-02T08:06:54;99004.78;;;0.44;100.00
53262;BME280;39658;51.090;-1.786;2024-03-02T08:09:21;99010.22;;;0.39;100.00
53262;BME280;39658;51.090;-1.786;2024-03-02T08:11:48;99013.72;;;0.38;100.00
53262;BME280;39658;51.090;-1.786;2024-03-02T08:14:14;99015.72;;;0.33;100.00
53262;BME280;39658;51.090;-1.786;2024-03-02T08:16:41;99012.91;;;0.38;100.00
53262;BME280;39658;51.090;-1.786;2024-03-02T08:19:08;99019.66;;;0.40;100.00
53262;BME280;39658;51.090;-1.786;2024-03-02T08:21:36;99027.75;;;0.51;100.00
53262;BME280;39658;51.090;-1.786;2024-03-02T08:24:04;99027.81;;;0.50;100.00
53262;BME280;39658;51.090;-1.786;2024-03-02T08:26:31;99029.63;;;0.48;100.00
53262;BME280;39658;51.090;-1.786;2024-03-02T08:28:58;99032.78;;;0.55;100.00
53262;BME280;39658;51.090;-1.786;2024-03-02T08:31:27;99033.94;;;0.65;100.00
53262;BME280;39658;51.090;-1.786;2024-03-02T08:33:53;99031.97;;;0.70;100.00
53262;BME280;39658;51.090;-1.786;2024-03-02T08:36:20;99044.94;;;0.70;100.00
53262;BME280;39658;51.090;-1.786;2024-03-02T08:38:49;99039.50;;;0.75;100.00
53262;BME280;39658;51.090;-1.786;2024-03-02T08:41:17;99044.44;;;0.79;100.00
53262;BME280;39658;51.090;-1.786;2024-03-02T08:43:44;99045.78;;;0.86;100.00
53262;BME280;39658;51.090;-1.786;2024-03-02T08:46:10;99041.81;;;0.97;100.00
53262;BME280;39658;51.090;-1.786;2024-03-02T08:48:37;99049.59;;;1.13;100.00
53262;BME280;39658;51.090;-1.786;2024-03-02T08:51:04;99056.22;;;1.34;100.00
53262;BME280;39658;51.090;-1.786;2024-03-02T08:53:33;99061.88;;;1.57;100.00
53262;BME280;39658;51.090;-1.786;2024-03-02T08:56:02;99054.19;;;1.71;100.00
53262;BME280;39658;51.090;-1.786;2024-03-02T08:58:31;99062.72;;;1.73;100.00
53262;BME280;39658;51.090;-1.786;2024-03-02T09:00:58;99064.41;;;1.74;100.00
53262;BME280;39658;51.090;-1.786;2024-03-02T09:03:25;99063.22;;;1.64;100.00
53262;BME280;39658;51.090;-1.786;2024-03-02T09:05:51;99063.81;;;1.69;100.00
53262;BME280;39658;51.090;-1.786;2024-03-02T09:08:18;99066.31;;;1.71;100.00
53262;BME280;39658;51.090;-1.786;2024-03-02T09:10:45;99056.88;;;1.70;100.00
53262;BME280;39658;51.090;-1.786;2024-03-02T09:13:13;99035.94;;;1.87;100.00
53262;BME280;39658;51.090;-1.786;2024-03-02T09:15:40;99029.50;;;1.94;100.00
53262;BME280;39658;51.090;-1.786;2024-03-02T09:18:07;99014.84;;;2.08;100.00
53262;BME280;39658;51.090;-1.786;2024-03-02T09:20:33;99010.69;;;2.20;100.00
53262;BME280;39658;51.090;-1.786;2024-03-02T09:22:59;99002.81;;;2.36;100.00
53262;BME280;39658;51.090;-1.786;2024-03-02T09:25:26;98980.88;;;2.68;100.00
53262;BME280;39658;51.090;-1.786;2024-03-02T09:27:53;98967.69;;;2.57;100.00
53262;BME280;39658;51.090;-1.786;2024-03-02T09:30:21;98937.97;;;2.61;100.00
53262;BME280;39658;51.090;-1.786;2024-03-02T09:32:48;98911.28;;;2.58;100.00
53262;BME280;39658;51.090;-1.786;2024-03-02T09:35:15;98876.00;;;2.54;100.00
53262;BME280;39658;51.090;-1.786;2024-03-02T09:37:42;98842.44;;;2.63;100.00
53262;BME280;39658;51.090;-1.786;2024-03-02T09:40:10;98796.22;;;2.67;100.00
53262;BME280;39658;51.090;-1.786;2024-03-02T09:42:37;98757.97;;;2.82;100.00
53262;BME280;39658;51.090;-1.786;2024-03-02T09:45:05;98711.03;;;2.83;100.00
53262;BME280;39658;51.090;-1.786;2024-03-02T09:47:34;98674.81;;;2.93;100.00
53262;BME280;39658;51.090;-1.786;2024-03-02T09:50:01;98629.72;;;3.05;100.00
53262;BME280;39658;51.090;-1.786;2024-03-02T09:52:30;98585.75;;;3.14;100.00
53262;BME280;39658;51.090;-1.786;2024-03-02T09:54:57;98531.69;;;3.17;100.00
53262;BME280;39658;51.090;-1.786;2024-03-02T09:57:24;98504.47;;;3.34;100.00
53262;BME280;39658;51.090;-1.786;2024-03-02T09:59:51;98457.94;;;3.41;100.00
53262;BME280;39658;51.090;-1.786;2024-03-02T10:02:18;98408.66;;;3.27;100.00
53262;BME280;39658;51.090;-1.786;2024-03-02T10:04:49;98357.53;;;3.37;100.00
53262;BME280;39658;51.090;-1.786;2024-03-02T10:07:16;98319.91;;;3.41;100.00
53262;BME280;39658;51.090;-1.786;2024-03-02T10:09:44;98281.66;;;3.41;100.00
53262;BME280;39658;51.090;-1.786;2024-03-02T10:12:12;98256.69;;;3.39;100.00
53262;BME280;39658;51.090;-1.786;2024-03-02T10:14:40;98254.19;;;3.37;100.00
53262;BME280;39658;51.090;-1.786;2024-03-02T10:17:08;98233.22;;;3.39;100.00
53262;BME280;39658;51.090;-1.786;2024-03-02T10:19:36;98236.97;;;3.12;100.00
53262;BME280;39658;51.090;-1.786;2024-03-02T10:22:06;98239.94;;;3.19;100.00
53262;BME280;39658;51.090;-1.786;2024-03-02T10:24:38;98230.25;;;3.21;100.00
53262;BME280;39658;51.090;-1.786;2024-03-02T10:27:09;98229.53;;;3.30;100.00
53262;BME280;39658;51.090;-1.786;2024-03-02T10:29:37;98225.06;;;3.55;100.00
53262;BME280;39658;51.090;-1.786;2024-03-02T10:32:05;98226.59;;;3.80;100.00
53262;BME280;39658;51.090;-1.786;2024-03-02T10:34:33;98221.47;;;4.01;100.00
53262;BME280;39658;51.090;-1.786;2024-03-02T10:37:00;98237.00;;;4.03;100.00
53262;BME280;39658;51.090;-1.786;2024-03-02T10:39:28;98235.09;;;4.05;100.00
53262;BME280;39658;51.090;-1.786;2024-03-02T10:41:58;98244.47;;;4.07;100.00
53262;BME280;39658;51.090;-1.786;2024-03-02T10:44:25;98266.38;;;4.05;100.00
53262;BME280;39658;51.090;-1.786;2024-03-02T10:46:53;98266.53;;;3.92;100.00
53262;BME280;39658;51.090;-1.786;2024-03-02T10:49:23;98284.28;;;3.87;100.00
53262;BME280;39658;51.090;-1.786;2024-03-02T10:51:50;98298.63;;;3.81;100.00
53262;BME280;39658;51.090;-1.786;2024-03-02T10:54:17;98308.13;;;3.93;100.00
53262;BME280;39658;51.090;-1.786;2024-03-02T10:56:53;98322.22;;;4.13;100.00
53262;BME280;39658;51.090;-1.786;2024-03-02T10:59:26;98400.19;;;4.39;100.00
53262;BME280;39658;51.090;-1.786;2024-03-02T11:01:56;98439.81;;;4.33;100.00
53262;BME280;39658;51.090;-1.786;2024-03-02T11:04:24;98469.31;;;4.22;100.00
53262;BME280;39658;51.090;-1.786;2024-03-02T11:06:56;98492.75;;;4.00;100.00
53262;BME280;39658;51.090;-1.786;2024-03-02T11:09:27;98509.22;;;4.00;100.00
53262;BME280;39658;51.090;-1.786;2024-03-02T11:12:02;98527.25;;;4.03;100.00
53262;BME280;39658;51.090;-1.786;2024-03-02T11:14:30;98545.88;;;4.10;100.00
53262;BME280;39658;51.090;-1.786;2024-03-02T11:17:00;98548.47;;;4.10;100.00
53262;BME280;39658;51.090;-1.786;2024-03-02T11:19:30;98545.53;;;4.14;100.00
53262;BME280;39658;51.090;-1.786;2024-03-02T11:22:02;98563.41;;;4.08;100.00
53262;BME280;39658;51.090;-1.786;2024-03-02T11:24:31;98555.34;;;4.00;100.00
53262;BME280;39658;51.090;-1.786;2024-03-02T11:27:00;98567.59;;;4.10;100.00
53262;BME280;39658;51.090;-1.786;2024-03-02T11:29:48;98574.06;;;4.40;100.00
53262;BME280;39658;51.090;-1.786;2024-03-02T11:32:20;98583.63;;;4.87;100.00
53262;BME280;39658;51.090;-1.786;2024-03-02T11:34:49;98610.53;;;4.64;100.00
53262;BME280;39658;51.090;-1.786;2024-03-02T11:37:17;98609.47;;;4.67;100.00
53262;BME280;39658;51.090;-1.786;2024-03-02T11:39:46;98619.28;;;4.52;100.00
53262;BME280;39658;51.090;-1.786;2024-03-02T11:42:15;98618.09;;;4.56;100.00
53262;BME280;39658;51.090;-1.786;2024-03-02T11:44:43;98627.50;;;4.70;100.00
53262;BME280;39658;51.090;-1.786;2024-03-02T11:47:13;98616.34;;;5.70;100.00
53262;BME280;39658;51.090;-1.786;2024-03-02T11:49:44;98639.09;;;6.45;100.00
53262;BME280;39658;51.090;-1.786;2024-03-02T11:52:12;98675.06;;;5.54;100.00
53262;BME280;39658;51.090;-1.786;2024-03-02T11:54:41;98679.78;;;6.50;100.00
53262;BME280;39658;51.090;-1.786;2024-03-02T11:57:12;98698.91;;;6.18;100.00
53262;BME280;39658;51.090;-1.786;2024-03-02T11:59:41;98712.25;;;5.69;100.00
53262;BME280;39658;51.090;-1.786;2024-03-02T12:02:14;98715.66;;;5.02;100.00
53262;BME280;39658;51.090;-1.786;2024-03-02T12:04:42;98721.72;;;4.67;100.00
53262;BME280;39658;51.090;-1.786;2024-03-02T12:07:10;98716.34;;;4.33;100.00
53262;BME280;39658;51.090;-1.786;2024-03-02T12:09:37;98713.78;;;4.20;100.00
53262;BME280;39658;51.090;-1.786;2024-03-02T12:12:05;98705.19;;;4.31;100.00
53262;BME280;39658;51.090;-1.786;2024-03-02T12:14:33;98703.16;;;4.23;100.00
53262;BME280;39658;51.090;-1.786;2024-03-02T12:17:02;98699.38;;;4.27;100.00
53262;BME280;39658;51.090;-1.786;2024-03-02T12:19:29;98694.91;;;4.65;100.00
53262;BME280;39658;51.090;-1.786;2024-03-02T12:21:56;98689.53;;;5.02;100.00
53262;BME280;39658;51.090;-1.786;2024-03-02T12:24:24;98697.97;;;4.94;100.00
53262;BME280;39658;51.090;-1.786;2024-03-02T12:26:51;98707.84;;;5.92;100.00
53262;BME280;39658;51.090;-1.786;2024-03-02T12:29:19;98741.97;;;7.63;100.00
53262;BME280;39658;51.090;-1.786;2024-03-02T12:31:48;98742.00;;;6.57;100.00
53262;BME280;39658;51.090;-1.786;2024-03-02T12:34:17;98741.38;;;5.76;100.00
53262;BME280;39658;51.090;-1.786;2024-03-02T12:36:45;98751.56;;;5.45;100.00
53262;BME280;39658;51.090;-1.786;2024-03-02T12:39:15;98757.72;;;5.21;100.00
53262;BME280;39658;51.090;-1.786;2024-03-02T12:41:42;98760.84;;;5.27;100.00
53262;BME280;39658;51.090;-1.786;2024-03-02T12:44:08;98758.69;;;5.32;100.00
53262;BME280;39658;51.090;-1.786;2024-03-02T12:46:35;98758.47;;;5.46;100.00
53262;BME280;39658;51.090;-1.786;2024-03-02T12:49:07;98764.78;;;5.55;100.00
53262;BME280;39658;51.090;-1.786;2024-03-02T12:51:36;98769.16;;;5.43;100.00